createdAt,value
2019-01-15T00:02:23.648Z,101789.43
2019-01-15T00:04:50.871Z,101794.52
2019-01-15T00:07:18.129Z,101788.48
2019-01-15T00:09:45.328Z,101790.61
2019-01-15T00:12:12.563Z,101789.47
2019-01-15T00:14:39.811Z,101777.16
2019-01-15T00:17:07.008Z,101778.27
2019-01-15T00:19:34.217Z,101775.41
2019-01-15T00:22:01.469Z,101775.48
2019-01-15T00:24:28.680Z,101775.23
2019-01-15T00:26:55.922Z,101775.41
2019-01-15T00:29:23.192Z,101784.33
2019-01-15T00:31:50.429Z,101779.55
2019-01-15T00:34:17.628Z,101771.20
2019-01-15T00:36:44.934Z,101767.52
2019-01-15T00:39:12.118Z,101762.15
2019-01-15T00:41:39.325Z,101757.40
2019-01-15T00:44:06.560Z,101767.58
2019-01-15T00:46:33.769Z,101767.48
2019-01-15T00:49:00.986Z,101760.19
2019-01-15T00:51:28.235Z,101767.28
2019-01-15T00:53:55.451Z,101766.71
2019-01-15T00:56:22.669Z,101759.02
2019-01-15T00:58:49.922Z,101766.53
2019-01-15T01:01:17.160Z,101767.81
2019-01-15T01:03:44.676Z,101761.90
2019-01-15T01:06:11.878Z,101764.41
2019-01-15T01:08:39.082Z,101759.72
2019-01-15T01:11:07.231Z,101754.78
2019-01-15T01:13:34.448Z,101746.76
2019-01-15T01:16:01.702Z,101743.95
2019-01-15T01:18:28.906Z,101732.61
2019-01-15T01:20:56.167Z,101723.44
2019-01-15T01:23:23.454Z,101724.87
2019-01-15T01:25:50.669Z,101724.39
2019-01-15T01:28:17.959Z,101732.10
2019-01-15T01:30:45.392Z,101728.64
2019-01-15T01:33:12.635Z,101735.95
2019-01-15T01:35:40.185Z,101730.73
2019-01-15T01:38:07.424Z,101734.72
2019-01-15T01:40:34.649Z,101731.91
2019-01-15T01:43:01.937Z,101730.55
2019-01-15T01:45:29.143Z,101730.98
2019-01-15T01:47:56.388Z,101723.23
2019-01-15T01:50:23.603Z,101725.93
2019-01-15T01:52:51.916Z,101721.42
2019-01-15T01:55:19.168Z,101715.00
2019-01-15T01:57:46.429Z,101717.29
2019-01-15T02:00:18.243Z,101702.44
2019-01-15T02:02:45.539Z,101701.54
2019-01-15T02:05:12.944Z,101703.34
2019-01-15T02:07:40.224Z,101697.22
2019-01-15T02:10:09.803Z,101695.91
2019-01-15T02:12:37.238Z,101696.70
2019-01-15T02:15:05.763Z,101688.56
2019-01-15T02:17:33.016Z,101680.83
2019-01-15T02:20:00.262Z,101675.23
2019-01-15T02:22:27.486Z,101676.53
2019-01-15T02:24:54.835Z,101676.09
2019-01-15T02:27:22.907Z,101677.73
2019-01-15T02:29:50.176Z,101679.23
2019-01-15T02:32:17.388Z,101668.70
2019-01-15T02:34:44.663Z,101670.69
2019-01-15T02:37:11.942Z,101657.89
2019-01-15T02:39:39.361Z,101655.62
2019-01-15T02:42:06.597Z,101647.78
2019-01-15T02:44:34.043Z,101656.70
2019-01-15T02:47:01.270Z,101644.16
2019-01-15T02:49:28.521Z,101637.52
2019-01-15T02:51:55.837Z,101643.45
2019-01-15T02:54:23.046Z,101633.19
2019-01-15T02:56:50.358Z,101625.12
2019-01-15T02:59:17.684Z,101620.20
2019-01-15T03:01:44.913Z,101622.73
2019-01-15T03:04:12.177Z,101616.61
2019-01-15T03:06:39.390Z,101621.98
2019-01-15T03:09:09.308Z,101613.13
2019-01-15T03:11:36.738Z,101616.08
2019-01-15T03:14:04.154Z,101613.36
2019-01-15T03:16:31.395Z,101615.97
2019-01-15T03:18:58.672Z,101613.42
2019-01-15T03:21:25.947Z,101620.78
2019-01-15T03:23:53.140Z,101609.92
2019-01-15T03:26:20.381Z,101615.55
2019-01-15T03:28:47.606Z,101615.97
2019-01-15T03:31:14.943Z,101609.86
2019-01-15T03:33:42.266Z,101604.63
2019-01-15T03:36:09.487Z,101611.45
2019-01-15T03:38:37.119Z,101617.39
2019-01-15T03:41:04.348Z,101616.32
2019-01-15T03:43:31.564Z,101625.41
2019-01-15T03:46:04.248Z,101625.23
2019-01-15T03:48:27.955Z,101611.58
2019-01-15T03:50:55.151Z,101614.43
2019-01-15T03:53:22.421Z,101600.76
2019-01-15T03:55:49.671Z,101606.41
2019-01-15T03:58:16.904Z,101606.52
2019-01-15T04:00:44.186Z,101610.62
2019-01-15T04:03:11.418Z,101603.14
2019-01-15T04:05:38.681Z,101598.86
2019-01-15T04:08:06.002Z,101586.38
2019-01-15T04:10:33.248Z,101582.28
2019-01-15T04:13:00.469Z,101580.05
2019-01-15T04:15:27.738Z,101577.90
2019-01-15T04:17:55.059Z,101568.98
2019-01-15T04:20:23.490Z,101568.98
2019-01-15T04:22:50.731Z,101563.02
2019-01-15T04:25:17.953Z,101559.09
2019-01-15T04:27:45.174Z,101556.79
2019-01-15T04:30:17.398Z,101555.18
2019-01-15T04:32:44.818Z,101554.23
2019-01-15T04:35:12.381Z,101548.89
2019-01-15T04:37:39.618Z,101551.16
2019-01-15T04:40:09.250Z,101549.23
2019-01-15T04:42:36.466Z,101538.23
2019-01-15T04:45:04.597Z,101539.80
2019-01-15T04:47:31.814Z,101537.59
2019-01-15T04:49:59.296Z,101524.11
2019-01-15T04:52:27.086Z,101530.94
2019-01-15T04:54:54.284Z,101519.08
2019-01-15T04:57:21.822Z,101517.20
2019-01-15T04:59:50.772Z,101511.66
2019-01-15T05:02:18.654Z,101505.88
2019-01-15T05:04:46.036Z,101511.28
2019-01-15T05:07:13.234Z,101510.01
2019-01-15T05:09:40.485Z,101519.02
2019-01-15T05:12:08.013Z,101515.06
2019-01-15T05:14:35.263Z,101498.58
2019-01-15T05:17:02.649Z,101487.61
2019-01-15T05:19:29.862Z,101500.20
2019-01-15T05:21:57.102Z,101503.44
2019-01-15T05:24:24.349Z,101481.74
2019-01-15T05:26:51.588Z,101492.86
2019-01-15T05:29:18.863Z,101490.17
2019-01-15T05:31:46.172Z,101489.32
2019-01-15T05:34:13.942Z,101485.36
2019-01-15T05:36:41.184Z,101478.75
2019-01-15T05:39:08.527Z,101479.00
2019-01-15T05:41:35.799Z,101477.09
2019-01-15T05:44:03.236Z,101470.27
2019-01-15T05:46:30.461Z,101474.66
2019-01-15T05:48:57.742Z,101468.94
2019-01-15T05:51:32.196Z,101470.59
2019-01-15T05:53:59.447Z,101470.28
2019-01-15T05:56:26.673Z,101470.38
2019-01-15T05:58:53.887Z,101463.27
2019-01-15T06:01:21.159Z,101460.19
2019-01-15T06:03:48.378Z,101446.84
2019-01-15T06:06:15.601Z,101434.91
2019-01-15T06:08:42.896Z,101425.69
2019-01-15T06:11:10.147Z,101434.86
2019-01-15T06:13:42.658Z,101446.28
2019-01-15T06:16:06.504Z,101446.13
2019-01-15T06:18:33.769Z,101446.70
2019-01-15T06:21:01.015Z,101439.36
2019-01-15T06:23:29.957Z,101445.01
2019-01-15T06:25:57.249Z,101438.47
2019-01-15T06:28:25.076Z,101438.62
2019-01-15T06:30:52.638Z,101440.67
2019-01-15T06:33:19.914Z,101438.27
2019-01-15T06:35:47.160Z,101426.01
2019-01-15T06:38:14.383Z,101436.64
2019-01-15T06:40:41.607Z,101439.58
2019-01-15T06:43:08.885Z,101436.58
2019-01-15T06:45:36.392Z,101442.14
2019-01-15T06:48:04.203Z,101437.16
2019-01-15T06:50:31.834Z,101450.25
2019-01-15T06:52:59.064Z,101442.81
2019-01-15T06:55:26.370Z,101449.36
2019-01-15T06:57:54.161Z,101444.70
2019-01-15T07:00:26.443Z,101444.22
2019-01-15T07:02:53.805Z,101443.29
2019-01-15T07:05:21.030Z,101441.08
2019-01-15T07:07:48.281Z,101440.19
2019-01-15T07:10:21.177Z,101436.52
2019-01-15T07:12:48.500Z,101438.47
2019-01-15T07:15:15.888Z,101437.98
2019-01-15T07:17:43.137Z,101432.27
2019-01-15T07:20:11.615Z,101430.70
2019-01-15T07:22:38.857Z,101434.22
2019-01-15T07:25:08.528Z,101438.14
2019-01-15T07:27:35.759Z,101439.20
2019-01-15T07:30:04.467Z,101442.55
2019-01-15T07:32:31.727Z,101432.27
2019-01-15T07:34:59.103Z,101443.31
2019-01-15T07:37:26.330Z,101449.19
2019-01-15T07:39:53.592Z,101448.61
2019-01-15T07:42:20.832Z,101452.96
2019-01-15T07:44:48.064Z,101445.52
2019-01-15T07:47:15.343Z,101444.05
2019-01-15T07:49:42.701Z,101440.13
2019-01-15T07:52:09.918Z,101442.74
2019-01-15T07:54:37.166Z,101436.36
2019-01-15T07:57:04.607Z,101440.75
2019-01-15T07:59:31.846Z,101428.97
2019-01-15T08:01:59.089Z,101420.95
2019-01-15T08:04:26.664Z,101438.97
2019-01-15T08:06:53.878Z,101434.88
2019-01-15T08:09:21.090Z,101438.05
2019-01-15T08:11:48.346Z,101425.28
2019-01-15T08:14:15.761Z,101423.33
2019-01-15T08:16:43.124Z,101415.47
2019-01-15T08:19:10.387Z,101410.08
2019-01-15T08:21:37.923Z,101410.08
2019-01-15T08:24:05.183Z,101428.06
2019-01-15T08:26:33.378Z,101419.56
2019-01-15T08:29:00.665Z,101428.58
2019-01-15T08:31:27.962Z,101423.00
2019-01-15T08:33:55.488Z,101414.96
2019-01-15T08:36:22.712Z,101413.60
2019-01-15T08:38:49.931Z,101407.84
2019-01-15T08:41:17.196Z,101404.33
2019-01-15T08:43:44.666Z,101411.45
2019-01-15T08:46:11.929Z,101411.45
2019-01-15T08:48:39.871Z,101417.03
2019-01-15T08:51:08.527Z,101416.14
2019-01-15T08:53:36.190Z,101411.78
2019-01-15T08:56:04.464Z,101416.04
2019-01-15T08:58:31.754Z,101413.08
2019-01-15T09:00:59.086Z,101403.76
2019-01-15T09:03:26.346Z,101400.72
2019-01-15T09:05:53.829Z,101396.69
2019-01-15T09:08:21.082Z,101401.69
2019-01-15T09:10:48.627Z,101397.77
2019-01-15T09:13:15.977Z,101395.06
2019-01-15T09:15:43.550Z,101392.86
2019-01-15T09:18:10.769Z,101390.48
2019-01-15T09:20:38.016Z,101399.71
2019-01-15T09:23:05.240Z,101407.52
2019-01-15T09:25:32.592Z,101408.65
2019-01-15T09:27:59.822Z,101418.81
2019-01-15T09:30:27.043Z,101425.36
2019-01-15T09:32:54.586Z,101424.13
2019-01-15T09:35:21.820Z,101414.47
2019-01-15T09:37:50.093Z,101421.81
2019-01-15T09:40:19.316Z,101411.84
2019-01-15T09:42:46.544Z,101414.05
2019-01-15T09:45:15.566Z,101411.75
2019-01-15T09:47:52.670Z,101414.38
2019-01-15T09:50:19.996Z,101420.13
2019-01-15T09:52:47.352Z,101415.37
2019-01-15T09:55:14.604Z,101414.74
2019-01-15T09:57:41.892Z,101408.08
2019-01-15T10:00:09.308Z,101407.26
2019-01-15T10:02:36.672Z,101394.04
2019-01-15T10:05:04.523Z,101396.96
2019-01-15T10:07:31.829Z,101390.80
2019-01-15T10:09:59.094Z,101393.09
2019-01-15T10:12:26.461Z,101384.20
2019-01-15T10:14:53.701Z,101395.27
2019-01-15T10:17:20.927Z,101387.40
2019-01-15T10:19:48.367Z,101388.32
2019-01-15T10:22:16.221Z,101388.94
2019-01-15T10:24:43.559Z,101383.22
2019-01-15T10:27:11.733Z,101373.34
2019-01-15T10:29:39.324Z,101382.44
2019-01-15T10:32:51.596Z,101383.88
2019-01-15T10:35:51.404Z,101380.78
2019-01-15T10:38:19.033Z,101377.25
2019-01-15T10:40:46.964Z,101371.48
2019-01-15T10:43:14.169Z,101371.48
2019-01-15T10:45:43.623Z,101373.72
2019-01-15T10:48:10.844Z,101365.91
2019-01-15T10:50:38.242Z,101355.41
2019-01-15T10:53:05.584Z,101357.91
2019-01-15T10:55:32.869Z,101360.85
2019-01-15T10:58:00.077Z,101354.16
2019-01-15T11:00:27.340Z,101350.73
2019-01-15T11:02:54.888Z,101350.22
2019-01-15T11:05:22.151Z,101356.64
2019-01-15T11:07:49.413Z,101349.14
2019-01-15T11:10:16.782Z,101351.76
2019-01-15T11:12:44.033Z,101346.66
2019-01-15T11:15:11.805Z,101343.59
2019-01-15T11:17:39.071Z,101340.22
2019-01-15T11:20:08.657Z,101328.44
2019-01-15T11:22:35.914Z,101328.44
2019-01-15T11:25:05.390Z,101340.27
2019-01-15T11:27:32.656Z,101334.33
2019-01-15T11:29:59.884Z,101331.06
2019-01-15T11:32:27.294Z,101333.62
2019-01-15T11:34:54.645Z,101326.20
2019-01-15T11:37:21.997Z,101330.11
2019-01-15T11:39:49.314Z,101315.79
2019-01-15T11:42:16.556Z,101303.32
2019-01-15T11:44:43.828Z,101309.46
2019-01-15T11:47:11.080Z,101309.46
2019-01-15T11:49:38.346Z,101304.83
2019-01-15T11:52:05.580Z,101306.97
2019-01-15T11:54:32.809Z,101312.58
2019-01-15T11:57:00.195Z,101299.61
2019-01-15T11:59:27.915Z,101297.32
2019-01-15T12:02:13.983Z,101292.16
2019-01-15T12:05:03.425Z,101288.97
2019-01-15T12:07:48.915Z,101280.98
2019-01-15T12:10:42.015Z,101284.48
2019-01-15T12:13:27.486Z,101277.36
2019-01-15T12:16:23.238Z,101270.60
2019-01-15T12:19:01.483Z,101279.34
2019-01-15T12:21:57.754Z,101271.34
2019-01-15T12:24:53.195Z,101280.91
2019-01-15T12:27:38.381Z,101280.91
2019-01-15T12:30:30.496Z,101266.65
2019-01-15T12:33:16.357Z,101255.86
2019-01-15T12:36:05.988Z,101260.98
2019-01-15T12:39:08.101Z,101268.70
2019-01-15T12:41:46.698Z,101272.84
2019-01-15T12:44:40.639Z,101274.58
2019-01-15T12:47:28.697Z,101262.55
2019-01-15T12:50:24.429Z,101262.69
2019-01-15T12:53:23.455Z,101248.33
2019-01-15T12:56:13.140Z,101248.33
2019-01-15T12:58:59.142Z,101252.69
2019-01-15T13:01:58.115Z,101257.86
2019-01-15T13:04:47.984Z,101253.80
2019-01-15T13:07:33.409Z,101248.41
2019-01-15T13:10:36.752Z,101248.52
2019-01-15T13:13:34.995Z,101248.52
2019-01-15T13:16:21.741Z,101243.77
2019-01-15T13:19:26.567Z,101239.09
2019-01-15T13:22:11.511Z,101239.09
2019-01-15T13:24:58.305Z,101247.02
2019-01-15T13:27:44.241Z,101251.30
2019-01-15T13:30:32.971Z,101251.80
2019-01-15T13:33:36.875Z,101250.61
2019-01-15T13:36:37.313Z,101227.66
2019-01-15T13:39:18.952Z,101227.66
2019-01-15T13:42:04.450Z,101241.22
2019-01-15T13:44:53.619Z,101234.64
2019-01-15T13:47:56.595Z,101234.64
2019-01-15T13:50:43.383Z,101244.39
2019-01-15T13:53:38.933Z,101242.19
2019-01-15T13:56:24.559Z,101242.19
2019-01-15T13:59:10.752Z,101240.41
2019-01-15T14:01:58.971Z,101245.70
2019-01-15T14:04:49.129Z,101237.34
2019-01-15T14:07:38.543Z,101236.09
2019-01-15T14:10:30.051Z,101236.09
2019-01-15T14:13:21.445Z,101240.98
2019-01-15T14:16:11.253Z,101245.77
2019-01-15T14:19:12.917Z,101249.12
2019-01-15T14:21:58.229Z,101239.07
2019-01-15T14:24:50.850Z,101231.94
2019-01-15T14:27:49.312Z,101231.94
2019-01-15T14:30:30.479Z,101234.00
2019-01-15T14:33:12.518Z,101223.09
2019-01-15T14:35:47.893Z,101231.80
2019-01-15T14:38:50.406Z,101231.45
2019-01-15T14:41:40.068Z,101233.60
2019-01-15T14:44:25.849Z,101226.28
2019-01-15T14:47:30.847Z,101226.42
2019-01-15T14:50:17.618Z,101235.03
2019-01-15T14:53:02.947Z,101224.27
2019-01-15T14:55:47.969Z,101232.61
2019-01-15T14:58:40.533Z,101229.31
2019-01-15T15:01:33.638Z,101226.23
2019-01-15T15:04:29.423Z,101226.23
2019-01-15T15:07:22.160Z,101230.83
2019-01-15T15:10:09.340Z,101226.09
2019-01-15T15:12:55.072Z,101223.87
2019-01-15T15:15:41.944Z,101230.54
2019-01-15T15:18:37.950Z,101237.27
2019-01-15T15:21:23.205Z,101228.23
2019-01-15T15:23:58.091Z,101229.88
2019-01-15T15:27:03.159Z,101229.09
2019-01-15T15:29:42.603Z,101227.66
2019-01-15T15:32:32.335Z,101234.47
2019-01-15T15:35:17.808Z,101228.54
2019-01-15T15:38:03.359Z,101230.89
2019-01-15T15:40:48.707Z,101241.20
2019-01-15T15:43:47.479Z,101226.28
2019-01-15T15:46:39.922Z,101226.28
2019-01-15T15:49:25.656Z,101231.20
2019-01-15T15:52:21.050Z,101231.20
2019-01-15T15:55:06.581Z,101232.53
2019-01-15T15:57:52.060Z,101219.86
2019-01-15T16:00:39.145Z,101235.84
2019-01-15T16:03:24.937Z,101228.73
2019-01-15T16:06:16.916Z,101227.73
2019-01-15T16:09:15.853Z,101228.84
2019-01-15T16:12:05.889Z,101220.42
2019-01-15T16:15:08.077Z,101228.89
2019-01-15T16:17:57.957Z,101223.17
2019-01-15T16:20:56.672Z,101222.63
2019-01-15T16:23:33.388Z,101225.25
2019-01-15T16:26:26.307Z,101223.16
2019-01-15T16:29:25.503Z,101217.42
2019-01-15T16:32:02.721Z,101212.13
2019-01-15T16:34:52.678Z,101222.31
2019-01-15T16:37:42.148Z,101217.38
2019-01-15T16:40:23.893Z,101218.94
2019-01-15T16:43:11.018Z,101218.40
2019-01-15T16:45:56.560Z,101223.95
2019-01-15T16:48:49.120Z,101214.80
2019-01-15T16:51:35.926Z,101215.31
2019-01-15T16:54:21.476Z,101220.70
2019-01-15T16:57:06.969Z,101221.88
2019-01-15T17:00:08.932Z,101218.00
2019-01-15T17:03:04.971Z,101218.53
2019-01-15T17:05:55.025Z,101216.08
2019-01-15T17:08:41.585Z,101212.61
2019-01-15T17:11:28.340Z,101205.30
2019-01-15T17:14:14.889Z,101205.22
2019-01-15T17:17:00.903Z,101194.67
2019-01-15T17:19:41.924Z,101206.73
2019-01-15T17:22:46.967Z,101209.99
2019-01-15T17:25:36.577Z,101204.93
2019-01-15T17:28:20.064Z,101208.41
2019-01-15T17:31:15.239Z,101206.41
2019-01-15T17:34:01.247Z,101203.22
2019-01-15T17:36:53.865Z,101204.05
2019-01-15T17:39:39.521Z,101204.07
2019-01-15T17:42:44.679Z,101204.17
2019-01-15T17:45:46.500Z,101203.30
2019-01-15T17:48:35.067Z,101201.91
2019-01-15T17:51:21.894Z,101208.46
2019-01-15T17:54:02.412Z,101202.69
2019-01-15T17:56:50.824Z,101205.30
2019-01-15T17:59:36.476Z,101212.83
2019-01-15T18:02:35.082Z,101212.83
2019-01-15T18:05:42.075Z,101203.92
2019-01-15T18:08:21.452Z,101195.57
2019-01-15T18:11:23.266Z,101198.75
2019-01-15T18:14:08.726Z,101199.58
2019-01-15T18:17:01.899Z,101193.16
2019-01-15T18:19:47.035Z,101193.16
2019-01-15T18:22:23.707Z,101192.66
2019-01-15T18:25:01.492Z,101206.06
2019-01-15T18:27:59.586Z,101205.86
2019-01-15T18:30:59.647Z,101206.81
2019-01-15T18:33:48.880Z,101193.55
2019-01-15T18:36:41.322Z,101206.53
2019-01-15T18:39:40.428Z,101205.56
2019-01-15T18:42:36.095Z,101204.13
2019-01-15T18:45:28.223Z,101199.51
2019-01-15T18:48:08.233Z,101209.11
2019-01-15T18:50:53.477Z,101198.96
2019-01-15T18:53:46.137Z,101202.14
2019-01-15T18:56:31.435Z,101202.14
2019-01-15T18:59:24.426Z,101203.78
2019-01-15T19:02:10.114Z,101203.70
2019-01-15T19:05:12.114Z,101208.81
2019-01-15T19:08:11.822Z,101217.59
2019-01-15T19:10:57.939Z,101207.09
2019-01-15T19:13:38.501Z,101199.77
2019-01-15T19:16:25.629Z,101213.72
2019-01-15T19:19:12.052Z,101212.64
2019-01-15T19:21:49.200Z,101199.51
2019-01-15T19:24:36.047Z,101203.66
2019-01-15T19:27:28.649Z,101202.48
2019-01-15T19:30:23.622Z,101207.94
2019-01-15T19:33:09.056Z,101202.95
2019-01-15T19:35:54.724Z,101205.99
2019-01-15T19:38:32.012Z,101204.21
2019-01-15T19:41:29.020Z,101209.03
2019-01-15T19:44:14.246Z,101207.59
2019-01-15T19:46:53.579Z,101205.73
2019-01-15T19:49:52.260Z,101198.25
2019-01-15T19:52:37.048Z,101198.25
2019-01-15T19:55:29.127Z,101202.13
2019-01-15T19:58:05.103Z,101198.25
2019-01-15T20:00:57.739Z,101185.97
2019-01-15T20:03:43.225Z,101185.97
2019-01-15T20:06:28.229Z,101202.61
2019-01-15T20:09:30.098Z,101206.76
2019-01-15T20:12:26.219Z,101197.99
2019-01-15T20:15:13.868Z,101197.99
2019-01-15T20:18:12.618Z,101199.44
2019-01-15T20:20:55.564Z,101189.02
2019-01-15T20:23:47.054Z,101197.78
2019-01-15T20:26:22.553Z,101189.61
2019-01-15T20:29:18.668Z,101196.30
2019-01-15T20:32:08.053Z,101199.86
2019-01-15T20:34:50.192Z,101198.80
2019-01-15T20:37:28.402Z,101193.75
2019-01-15T20:40:27.262Z,101191.14
2019-01-15T20:43:19.685Z,101190.92
2019-01-15T20:46:25.231Z,101195.28
2019-01-15T20:49:06.632Z,101195.61
2019-01-15T20:51:51.886Z,101195.61
2019-01-15T20:54:38.959Z,101187.96
2019-01-15T20:57:24.868Z,101187.96
2019-01-15T21:00:14.384Z,101188.22
2019-01-15T21:03:01.272Z,101193.74
2019-01-15T21:05:42.869Z,101194.56
2019-01-15T21:08:35.504Z,101191.43
2019-01-15T21:11:14.684Z,101197.48
2019-01-15T21:14:04.299Z,101198.72
2019-01-15T21:16:52.618Z,101189.48
2019-01-15T21:19:42.071Z,101189.27
2019-01-15T21:22:27.502Z,101190.92
2019-01-15T21:25:06.280Z,101184.78
2019-01-15T21:28:05.150Z,101184.70
2019-01-15T21:31:04.060Z,101181.31
2019-01-15T21:33:50.879Z,101174.37
2019-01-15T21:36:37.697Z,101171.11
2019-01-15T21:39:34.221Z,101169.59
2019-01-15T21:42:32.904Z,101161.08
2019-01-15T21:45:28.106Z,101162.34
2019-01-15T21:48:17.474Z,101158.24
2019-01-15T21:51:04.638Z,101156.80
2019-01-15T21:53:50.261Z,101152.18
2019-01-15T21:56:27.943Z,101150.62
2019-01-15T21:59:13.525Z,101153.42
2019-01-15T22:02:18.662Z,101145.16
2019-01-15T22:05:04.589Z,101144.83
2019-01-15T22:07:40.896Z,101141.27
2019-01-15T22:10:31.890Z,101137.55
2019-01-15T22:13:24.466Z,101131.23
2019-01-15T22:16:10.006Z,101141.14
2019-01-15T22:19:08.801Z,101141.48
2019-01-15T22:21:55.596Z,101134.37
2019-01-15T22:24:41.026Z,101134.46
2019-01-15T22:27:36.286Z,101129.55
2019-01-15T22:30:23.407Z,101127.40
2019-01-15T22:33:10.207Z,101127.40
2019-01-15T22:35:55.683Z,101129.22
2019-01-15T22:38:41.047Z,101124.98
2019-01-15T22:41:17.402Z,101124.98
2019-01-15T22:43:59.110Z,101119.14
2019-01-15T22:46:44.976Z,101113.39
2019-01-15T22:49:37.394Z,101113.39
2019-01-15T22:52:23.123Z,101116.90
2019-01-15T22:55:18.789Z,101114.69
2019-01-15T22:58:05.614Z,101116.75
2019-01-15T23:01:09.496Z,101102.34
2019-01-15T23:04:05.140Z,101102.34
2019-01-15T23:06:50.507Z,101105.72
2019-01-15T23:09:39.868Z,101115.41
2019-01-15T23:12:26.668Z,101091.80
2019-01-15T23:15:19.160Z,101091.80
2019-01-15T23:18:18.704Z,101104.70
2019-01-15T23:21:09.653Z,101101.79
2019-01-15T23:23:52.335Z,101093.58
2019-01-15T23:26:37.651Z,101088.77
2019-01-15T23:29:18.291Z,101089.18
2019-01-15T23:32:08.131Z,101083.01
2019-01-15T23:34:45.453Z,101082.33
2019-01-15T23:37:50.676Z,101088.59
2019-01-15T23:40:36.508Z,101086.39
2019-01-15T23:43:21.978Z,101079.45
2019-01-15T23:46:02.361Z,101070.48
2019-01-15T23:49:01.235Z,101071.25
2019-01-15T23:51:59.979Z,101064.31
2019-01-15T23:54:58.974Z,101068.25
2019-01-15T23:57:43.147Z,101062.31
